Time;durP1;ratioP1;P1;durP2;ratioP2;P2;SDS_P1;SDS_P2;PMS_P1;PMS_P2;Temp;Humidity;BMP_temperature;BMP_pressure;BME280_temperature;BME280_humidity;BME280_pressure;Samples;Min_cycle;Max_cycle;Signal;HPM_P1;HPM_P2
2023/10/13 00:01:37;;;;;;;28.52;15.15;;;;;;;19.12;100.00;101301.88;4779505;30;20063;-64
2023/10/13 00:04:05;;;;;;;30.10;14.60;;;;;;;19.17;100.00;101310.84;4788532;30;20062;-64
2023/10/13 00:06:34;;;;;;;24.42;13.80;;;;;;;19.19;100.00;101310.53;4787952;30;20055;-64
2023/10/13 00:09:03;;;;;;;26.48;14.07;;;;;;;19.20;100.00;101320.47;4788046;30;20055;-64
2023/10/13 00:11:31;;;;;;;23.08;13.30;;;;;;;19.23;100.00;101328.19;4788041;30;20515;-64
2023/10/13 00:14:03;;;;;;;23.90;13.48;;;;;;;19.26;100.00;101323.94;4788088;30;20055;-64
2023/10/13 00:16:31;;;;;;;29.02;14.70;;;;;;;19.31;100.00;101330.16;4787161;30;20047;-64
2023/10/13 00:18:59;;;;;;;28.67;14.70;;;;;;;19.41;100.00;101328.22;4788400;30;20419;-64
2023/10/13 00:21:35;;;;;;;25.70;14.82;;;;;;;19.40;100.00;101332.16;4787629;30;20496;-65
2023/10/13 00:24:12;;;;;;;27.60;14.73;;;;;;;19.47;100.00;101335.28;4788057;30;20062;-65
2023/10/13 00:26:42;;;;;;;29.13;15.73;;;;;;;19.54;100.00;101335.59;4787920;30;20055;-65
2023/10/13 00:31:42;;;;;;;25.73;13.75;;;;;;;19.44;100.00;101333.13;4788205;29;20059;-65
2023/10/13 00:34:20;;;;;;;26.33;13.85;;;;;;;19.55;100.00;101331.69;4787451;30;20067;-65
2023/10/13 00:39:36;;;;;;;23.85;14.18;;;;;;;19.47;100.00;101321.41;4771638;30;20070;-64
2023/10/13 00:42:17;;;;;;;32.17;14.68;;;;;;;19.47;100.00;101333.28;4787688;30;20493;-65
2023/10/13 00:44:49;;;;;;;27.60;14.50;;;;;;;19.49;100.00;101321.88;4786084;30;20047;-65
2023/10/13 00:50:05;;;;;;;26.90;13.50;;;;;;;19.44;100.00;101322.84;4771563;30;20070;-65
2023/10/13 00:52:35;;;;;;;29.00;15.73;;;;;;;19.49;100.00;101313.56;4787330;30;20063;-65
2023/10/13 00:55:08;;;;;;;30.75;15.30;;;;;;;19.45;100.00;101315.31;4771399;30;20059;-65
2023/10/13 00:57:36;;;;;;;27.80;15.13;;;;;;;19.44;100.00;101310.94;4787227;30;20143;-65
2023/10/13 01:00:12;;;;;;;28.88;15.35;;;;;;;19.49;100.00;101323.84;4785806;30;20059;-65
2023/10/13 01:02:40;;;;;;;26.55;14.88;;;;;;;19.61;100.00;101316.50;4787339;30;20062;-65
2023/10/13 01:05:19;;;;;;;30.95;15.63;;;;;;;19.85;100.00;101323.56;4787404;30;20055;-65
2023/10/13 01:07:54;;;;;;;26.20;14.10;;;;;;;19.71;100.00;101315.38;4787268;30;20055;-65
2023/10/13 01:10:26;;;;;;;30.27;14.93;;;;;;;19.66;100.00;101318.34;4787202;30;20059;-65
2023/10/13 01:12:55;;;;;;;25.75;14.88;;;;;;;19.59;100.00;101306.88;4787390;30;20123;-65
2023/10/13 01:15:27;;;;;;;26.05;14.95;;;;;;;19.57;100.00;101312.78;4785935;30;20067;-64
2023/10/13 01:18:12;;;;;;;28.52;14.38;;;;;;;19.72;100.00;101300.38;4787182;30;20066;-64
2023/10/13 01:20:45;;;;;;;26.40;14.73;;;;;;;19.55;100.00;101306.69;4787325;30;20051;-64
2023/10/13 01:23:19;;;;;;;27.73;14.63;;;;;;;19.47;100.00;101310.28;4787035;30;20055;-65
2023/10/13 01:25:48;;;;;;;27.48;14.23;;;;;;;19.48;100.00;101317.47;4771587;30;20070;-65
2023/10/13 01:28:17;;;;;;;30.70;14.02;;;;;;;19.54;100.00;101299.53;4786223;30;20063;-65
2023/10/13 01:30:54;;;;;;;28.00;14.68;;;;;;;19.46;100.00;101303.91;4787215;29;20055;-65
2023/10/13 01:33:28;;;;;;;26.35;14.23;;;;;;;19.41;100.00;101301.28;4771137;30;20055;-65
2023/10/13 01:35:58;;;;;;;28.77;14.65;;;;;;;19.54;100.00;101305.06;4787483;29;20074;-65
2023/10/13 01:38:33;;;;;;;26.70;15.13;;;;;;;19.44;100.00;101302.59;4786950;30;20062;-65
2023/10/13 01:41:05;;;;;;;30.67;14.23;;;;;;;19.42;100.00;101296.56;4785760;30;20086;-65
2023/10/13 01:43:34;;;;;;;29.35;14.13;;;;;;;19.42;100.00;101293.78;4786772;30;20077;-65
2023/10/13 01:46:03;;;;;;;22.50;13.13;;;;;;;19.67;100.00;101291.38;4771027;30;20074;-65
2023/10/13 01:48:32;;;;;;;28.73;15.05;;;;;;;19.86;100.00;101291.88;4786820;30;20491;-65
2023/10/13 01:51:04;;;;;;;25.85;15.10;;;;;;;19.71;100.00;101293.16;4786490;30;20070;-65
2023/10/13 01:53:32;;;;;;;27.67;15.13;;;;;;;19.59;100.00;101291.03;4785450;30;20066;-65
2023/10/13 01:56:05;;;;;;;31.00;15.13;;;;;;;19.51;100.00;101291.84;4786493;30;20511;-65
2023/10/13 01:58:34;;;;;;;29.23;15.55;;;;;;;19.37;100.00;101289.22;4773116;30;20067;-65
2023/10/13 02:01:07;;;;;;;31.13;15.15;;;;;;;19.29;100.00;101290.00;4774786;30;20388;-65
2023/10/13 02:03:41;;;;;;;31.23;15.85;;;;;;;19.29;100.00;101293.59;4774397;30;20047;-64
2023/10/13 02:06:10;;;;;;;27.45;15.90;;;;;;;19.30;100.00;101294.41;4789128;30;20055;-64
2023/10/13 02:08:42;;;;;;;32.45;15.98;;;;;;;19.26;100.00;101288.69;4774168;30;20047;-64
2023/10/13 02:11:10;;;;;;;25.42;14.30;;;;;;;19.29;100.00;101282.50;4790116;30;20066;-65
2023/10/13 02:13:48;;;;;;;30.55;15.05;;;;;;;19.27;100.00;101284.78;4774525;30;20062;-65
2023/10/13 02:16:21;;;;;;;24.38;15.27;;;;;;;19.19;100.00;101280.00;4790358;30;20411;-65
2023/10/13 02:18:53;;;;;;;25.70;13.85;;;;;;;19.28;100.00;101280.03;4788599;30;20059;-65
2023/10/13 02:21:21;;;;;;;32.72;15.00;;;;;;;19.38;100.00;101290.00;4774010;30;20064;-65
2023/10/13 02:24:03;;;;;;;25.42;14.60;;;;;;;19.17;100.00;101279.53;4789184;29;20067;-64
2023/10/13 02:26:31;;;;;;;29.63;15.27;;;;;;;19.07;100.00;101273.13;4790168;29;20440;-65
2023/10/13 02:29:04;;;;;;;27.58;14.48;;;;;;;19.10;100.00;101270.88;4788719;30;20059;-64
2023/10/13 02:31:34;;;;;;;28.37;15.07;;;;;;;19.13;100.00;101279.34;4789496;30;20074;-64
2023/10/13 02:34:08;;;;;;;27.55;14.02;;;;;;;19.12;100.00;101266.63;4789777;30;20313;-64
2023/10/13 02:36:43;;;;;;;25.05;15.93;;;;;;;19.11;100.00;101269.72;4773761;30;20058;-64
2023/10/13 02:39:13;;;;;;;29.65;14.30;;;;;;;19.07;100.00;101264.81;4789821;30;20059;-65
2023/10/13 02:41:47;;;;;;;25.88;13.95;;;;;;;19.00;100.00;101258.88;4789838;30;20062;-65
2023/10/13 02:44:31;;;;;;;24.10;14.43;;;;;;;18.96;100.00;101252.34;4789411;30;20407;-65
2023/10/13 02:46:59;;;;;;;29.70;14.90;;;;;;;18.94;100.00;101249.06;4788544;30;20070;-64
2023/10/13 02:49:33;;;;;;;24.80;13.80;;;;;;;18.91;100.00;101250.53;4789721;30;20488;-64
2023/10/13 02:52:05;;;;;;;26.77;13.60;;;;;;;18.82;100.00;101255.22;4788160;30;20062;-64
2023/10/13 02:54:40;;;;;;;26.17;15.32;;;;;;;18.77;100.00;101244.28;4789471;30;20062;-65
2023/10/13 02:57:07;;;;;;;25.60;13.73;;;;;;;18.75;100.00;101246.53;4788336;30;20059;-65
2023/10/13 02:59:46;;;;;;;30.42;14.88;;;;;;;18.78;100.00;101248.69;4789512;30;20047;-65
2023/10/13 03:02:23;;;;;;;27.67;14.77;;;;;;;18.76;100.00;101249.00;4789653;30;20047;-65
2023/10/13 03:04:59;;;;;;;26.20;14.25;;;;;;;18.69;100.00;101247.81;4789195;30;20048;-64
2023/10/13 03:07:28;;;;;;;26.17;14.60;;;;;;;18.63;100.00;101250.72;4789378;30;20070;-64
2023/10/13 03:10:00;;;;;;;28.25;15.48;;;;;;;18.60;100.00;101251.38;4789053;29;20078;-65
2023/10/13 03:12:33;;;;;;;31.05;15.07;;;;;;;18.53;100.00;101246.28;4789387;30;20055;-65
2023/10/13 03:15:17;;;;;;;23.85;14.40;;;;;;;18.43;100.00;101242.97;4789147;30;20056;-65
2023/10/13 03:17:46;;;;;;;27.98;15.02;;;;;;;18.38;100.00;101246.72;4773097;30;20051;-64
2023/10/13 03:20:22;;;;;;;30.85;15.60;;;;;;;18.47;100.00;101241.22;4788754;30;20514;-64
2023/10/13 03:22:54;;;;;;;28.55;16.00;;;;;;;18.37;100.00;101245.88;4789032;30;20396;-64
2023/10/13 03:25:42;;;;;;;28.27;15.73;;;;;;;18.25;100.00;101256.72;4787799;30;20506;-64
2023/10/13 03:28:16;;;;;;;28.17;15.45;;;;;;;18.22;100.00;101249.84;4788515;30;20380;-64
2023/10/13 03:30:44;;;;;;;31.98;16.17;;;;;;;18.14;100.00;101261.72;4788868;30;20062;-65
2023/10/13 03:33:14;;;;;;;27.50;16.52;;;;;;;18.16;100.00;101253.88;4788277;30;20499;-65
2023/10/13 03:35:42;;;;;;;27.00;16.20;;;;;;;18.24;100.00;101253.13;4788440;29;20055;-64
2023/10/13 03:38:19;;;;;;;29.00;15.70;;;;;;;18.28;100.00;101245.00;4789078;29;20071;-65
2023/10/13 03:41:18;;;;;;;30.58;16.85;;;;;;;18.26;100.00;101255.59;4788636;30;20051;-65
2023/10/13 03:43:51;;;;;;;31.75;17.20;;;;;;;18.34;100.00;101265.09;4787943;30;20425;-65
2023/10/13 03:46:21;;;;;;;31.15;16.50;;;;;;;18.37;100.00;101253.34;4788897;29;20073;-65
2023/10/13 03:49:01;;;;;;;31.30;15.73;;;;;;;18.39;100.00;101260.22;4788370;30;20060;-65
2023/10/13 03:51:33;;;;;;;30.75;16.70;;;;;;;18.42;100.00;101264.31;4788195;30;20412;-65
2023/10/13 03:54:07;;;;;;;26.10;15.48;;;;;;;18.48;100.00;101265.81;4788363;30;20079;-65
2023/10/13 03:56:38;;;;;;;32.78;17.15;;;;;;;18.48;100.00;101260.28;4788112;30;20411;-65
2023/10/13 03:59:18;;;;;;;28.75;16.05;;;;;;;18.52;100.00;101260.44;4788348;30;20058;-65
2023/10/13 04:02:02;;;;;;;30.40;16.73;;;;;;;18.49;100.00;101261.09;4788466;29;20063;-65
2023/10/13 04:04:49;;;;;;;27.75;16.52;;;;;;;18.49;100.00;101256.38;4787946;30;20522;-65
2023/10/13 04:16:01;;;;;;;34.00;16.52;;;;;;;18.61;100.00;101257.72;4788107;30;20055;-65
2023/10/13 04:18:46;;;;;;;36.83;14.95;;;;;;;18.63;100.00;101261.81;4788065;30;20055;-65
2023/10/13 04:30:24;;;;;;;29.10;15.98;;;;;;;18.63;100.00;101266.56;4769581;30;20488;-65
2023/10/13 04:32:38;;;;;;;30.95;16.23;;;;;;;18.71;100.00;101260.22;4755750;29;20063;-68
2023/10/13 04:35:25;;;;;;;28.08;16.30;;;;;;;18.94;100.00;101265.72;4779974;29;20070;-68
2023/10/13 04:38:17;;;;;;;32.22;16.25;;;;;;;19.12;100.00;101261.09;4775055;29;20058;-69
2023/10/13 04:40:59;;;;;;;27.95;15.98;;;;;;;19.31;100.00;101263.56;4775294;29;20059;-68
2023/10/13 04:44:47;;;;;;;29.05;15.52;;;;;;;19.51;100.00;101263.28;4766475;30;20043;-68
2023/10/13 04:46:35;;;;;;;28.42;16.33;;;;;;;19.58;100.00;101266.38;4771159;29;20055;-68
2023/10/13 04:49:09;;;;;;;31.27;15.98;;;;;;;19.49;100.00;101269.13;4757342;30;20048;-68
2023/10/13 04:51:58;;;;;;;28.15;16.20;;;;;;;19.64;100.00;101270.63;4761724;30;20055;-68
2023/10/13 04:54:33;;;;;;;26.20;15.43;;;;;;;19.75;100.00;101273.91;4771786;30;20063;-68
2023/10/13 05:49:50;;;;;;;40.40;18.77;;;;;;;19.46;100.00;101317.00;4786919;30;20047;-68
2023/10/13 05:52:19;;;;;;;30.63;16.67;;;;;;;19.51;100.00;101319.63;4786802;30;20420;-68
2023/10/13 06:30:56;;;;;;;38.75;17.90;;;;;;;19.61;100.00;101360.13;4786750;30;20056;-68
2023/10/13 06:33:28;;;;;;;;;;;;;;;19.56;100.00;101352.75;4787301;30;20059;-68
2023/10/13 06:35:57;;;;;;;34.05;17.95;;;;;;;19.63;100.00;101351.47;4786726;30;19926;-68
2023/10/13 06:38:30;;;;;;;34.28;18.33;;;;;;;19.65;100.00;101365.84;4786759;30;20068;-68
2023/10/13 06:40:59;;;;;;;33.53;18.10;;;;;;;19.67;100.00;101371.88;4786943;30;20056;-68
2023/10/13 06:43:32;;;;;;;38.63;18.83;;;;;;;19.58;100.00;101372.69;4771796;30;20059;-68
2023/10/13 06:46:01;;;;;;;31.65;16.90;;;;;;;19.72;100.00;101380.06;4790348;30;20059;-68
2023/10/13 06:48:34;;;;;;;33.20;17.42;;;;;;;19.69;100.00;101384.31;4790070;30;20070;-67
2023/10/13 06:51:17;;;;;;;34.72;17.77;;;;;;;19.67;100.00;101389.38;4790652;30;20055;-68
2023/10/13 06:53:47;;;;;;;33.67;18.27;;;;;;;19.91;100.00;101390.06;4788817;30;20070;-68
2023/10/13 06:56:27;;;;;;;34.85;17.17;;;;;;;20.03;100.00;101390.28;4790318;30;20055;-68
2023/10/13 06:58:59;;;;;;;38.15;18.80;;;;;;;19.99;100.00;101392.09;4774299;30;20054;-68
2023/10/13 07:01:28;;;;;;;37.60;17.55;;;;;;;19.94;100.00;101401.34;4790398;30;20062;-68
2023/10/13 07:04:01;;;;;;;35.58;17.02;;;;;;;19.96;100.00;101392.72;4790105;30;20050;-68
2023/10/13 07:06:31;;;;;;;33.25;17.33;;;;;;;20.07;100.00;101398.78;4790594;30;20058;-68
2023/10/13 07:09:04;;;;;;;35.70;18.38;;;;;;;20.06;100.00;101397.97;4790461;30;20076;-68
2023/10/13 07:11:33;;;;;;;32.35;17.77;;;;;;;20.10;100.00;101398.94;4790531;30;20062;-67
2023/10/13 07:14:16;;;;;;;35.25;18.15;;;;;;;20.21;100.00;101391.13;4790211;30;20059;-68
2023/10/13 07:16:59;;;;;;;30.63;17.13;;;;;;;20.29;100.00;101406.16;4790114;30;20055;-68
2023/10/13 07:19:29;;;;;;;35.08;17.45;;;;;;;20.38;100.00;101401.41;4789301;30;20459;-68
2023/10/13 07:21:59;;;;;;;34.20;17.75;;;;;;;20.46;100.00;101407.28;4789277;30;20127;-68
2023/10/13 07:24:31;;;;;;;32.20;17.17;;;;;;;20.46;100.00;101405.34;4788098;30;20058;-68
2023/10/13 07:27:05;;;;;;;34.80;17.15;;;;;;;20.53;100.00;101404.84;4789142;30;20141;-68
2023/10/13 07:29:35;;;;;;;33.45;17.58;;;;;;;20.64;100.00;101403.34;4789218;30;20055;-68
2023/10/13 07:32:05;;;;;;;35.13;17.92;;;;;;;20.74;100.00;101398.59;4789045;30;20062;-68
2023/10/13 07:34:35;;;;;;;38.10;18.20;;;;;;;20.73;100.00;101408.91;4772820;30;20051;-68
2023/10/13 07:37:07;;;;;;;43.58;20.73;;;;;;;20.72;100.00;101412.03;4788953;30;20055;-68
2023/10/13 07:39:39;;;;;;;36.35;19.20;;;;;;;20.78;100.00;101414.28;4789017;30;20059;-68
2023/10/13 07:42:15;;;;;;;41.78;19.23;;;;;;;20.85;100.00;101407.44;4788928;30;20048;-68
2023/10/13 07:44:46;;;;;;;37.40;17.85;;;;;;;20.93;100.00;101399.06;4787781;30;20055;-68
2023/10/13 07:47:17;;;;;;;37.53;20.38;;;;;;;20.91;100.00;101417.25;4789072;30;20062;-68
2023/10/13 07:49:48;;;;;;;35.63;19.08;;;;;;;21.00;100.00;101411.66;4788887;30;20043;-68
2023/10/13 07:55:00;;;;;;;45.47;21.38;;;;;;;21.10;100.00;101416.06;4788629;29;20055;-68
2023/10/13 07:57:29;;;;;;;45.95;23.75;;;;;;;21.09;100.00;101418.03;4789061;30;20052;-68
2023/10/13 08:00:11;;;;;;;46.83;23.55;;;;;;;21.16;100.00;101417.53;4789073;30;20074;-67
2023/10/13 08:02:48;;;;;;;43.58;22.13;;;;;;;21.32;99.95;101412.22;4789133;30;20062;-68
2023/10/13 08:05:39;;;;;;;46.25;22.98;;;;;;;21.40;100.00;101422.50;4788941;30;20047;-68
2023/10/13 08:08:14;;;;;;;54.10;26.73;;;;;;;21.35;100.00;101425.47;4788901;30;20059;-68
2023/10/13 08:10:45;;;;;;;65.72;28.23;;;;;;;21.33;100.00;101422.22;4789039;30;20080;-68
2023/10/13 08:13:14;;;;;;;70.75;28.88;;;;;;;21.36;100.00;101424.31;4788945;30;20063;-68
2023/10/13 08:15:53;;;;;;;54.90;27.88;;;;;;;21.42;100.00;101423.00;4789152;30;20048;-68
2023/10/13 08:18:31;;;;;;;63.55;28.42;;;;;;;21.48;100.00;101424.44;4789345;30;20062;-68
2023/10/13 08:21:03;;;;;;;67.30;28.85;;;;;;;21.59;100.00;101430.44;4789272;30;20055;-68
2023/10/13 08:24:07;;;;;;;63.30;28.52;;;;;;;21.66;100.00;101420.75;4789311;30;20055;-68
2023/10/13 08:32:14;;;;;;;60.33;28.23;;;;;;;21.87;96.90;101423.59;4788132;30;20380;-68
2023/10/13 08:53:27;;;;;;;59.25;30.02;;;;;;;22.42;93.40;101430.09;4787513;30;20059;-68
2023/10/13 09:09:58;;;;;;;56.13;29.58;;;;;;;22.49;92.58;101439.91;4787856;30;20062;-68
2023/10/13 09:15:17;;;;;;;55.20;28.40;;;;;;;22.66;92.50;101444.53;4771910;30;20062;-68
2023/10/13 09:17:51;;;;;;;56.30;30.15;;;;;;;22.59;92.05;101441.47;4787959;30;20384;-68
2023/10/13 09:23:24;;;;;;;52.38;27.38;;;;;;;22.68;92.59;101445.81;4788131;30;20070;-67
2023/10/13 09:26:08;;;;;;;55.28;27.63;;;;;;;22.74;93.21;101443.66;4788238;30;20086;-67
2023/10/13 09:28:37;;;;;;;54.75;27.33;;;;;;;22.79;91.51;101446.19;4788010;30;20055;-68
2023/10/13 09:31:09;;;;;;;49.53;26.70;;;;;;;22.92;91.12;101449.06;4788056;30;20051;-68
2023/10/13 09:33:50;;;;;;;50.83;23.92;;;;;;;22.97;89.87;101443.22;4787469;30;20051;-68
2023/10/13 09:36:19;;;;;;;46.67;22.40;;;;;;;22.99;90.08;101446.50;4787085;30;20058;-68
2023/10/13 09:39:10;;;;;;;47.53;23.23;;;;;;;23.08;88.92;101438.06;4771082;30;20055;-68
2023/10/13 09:41:42;;;;;;;45.75;22.98;;;;;;;23.12;89.67;101443.75;4787052;30;20055;-69
2023/10/13 09:44:10;;;;;;;43.97;22.88;;;;;;;23.28;88.45;101436.34;4787036;30;20059;-69
2023/10/13 09:46:44;;;;;;;37.75;21.40;;;;;;;23.25;86.88;101425.06;4787020;30;20051;-68
2023/10/13 09:49:44;;;;;;;42.35;21.70;;;;;;;23.35;89.02;101424.63;4786950;30;20058;-68
2023/10/13 09:52:04;;;;;;;40.08;19.83;;;;;;;23.41;86.99;101430.81;4786779;30;20078;-68
2023/10/13 09:54:41;;;;;;;37.28;20.50;;;;;;;23.46;87.97;101433.38;4786886;30;20059;-68
2023/10/13 09:57:24;;;;;;;38.40;19.08;;;;;;;23.64;86.02;101430.34;4787038;30;20082;-68
2023/10/13 10:00:05;;;;;;;35.83;18.42;;;;;;;23.74;85.62;101441.03;4787020;30;20055;-68
2023/10/13 10:02:44;;;;;;;40.10;19.45;;;;;;;23.83;85.38;101433.34;4786092;30;20051;-68
2023/10/13 10:05:15;;;;;;;38.80;18.02;;;;;;;23.92;84.48;101430.44;4771044;30;20047;-68
2023/10/13 10:07:53;;;;;;;42.40;19.08;;;;;;;23.89;84.18;101431.13;4787196;30;20051;-68
2023/10/13 10:10:27;;;;;;;42.05;18.38;;;;;;;23.82;85.70;101426.16;4787267;30;20056;-69
2023/10/13 10:13:12;;;;;;;40.08;18.10;;;;;;;23.98;84.22;101420.63;4787360;30;20059;-68
2023/10/13 10:15:45;;;;;;;34.78;17.90;;;;;;;24.03;82.94;101422.38;4787311;30;20082;-68
2023/10/13 10:18:27;;;;;;;41.90;20.30;;;;;;;24.15;83.68;101424.38;4781523;30;20058;-68
2023/10/13 10:21:09;;;;;;;35.42;17.73;;;;;;;24.38;82.14;101424.66;4772864;30;20055;-68
2023/10/13 10:23:48;;;;;;;34.95;18.67;;;;;;;24.47;82.20;101416.09;4761279;29;20043;-68
2023/10/13 10:26:20;;;;;;;37.72;18.63;;;;;;;24.53;80.91;101420.28;4770675;30;20051;-68
2023/10/13 10:28:48;;;;;;;38.55;18.63;;;;;;;24.54;80.33;101416.31;4780892;30;20058;-68
2023/10/13 10:31:19;;;;;;;40.13;17.90;;;;;;;24.52;79.57;101407.47;4790871;30;20047;-67
2023/10/13 10:33:51;;;;;;;34.22;18.20;;;;;;;24.55;79.54;101415.13;4791229;30;20055;-68
2023/10/13 10:36:29;;;;;;;35.60;16.70;;;;;;;24.61;79.18;101409.28;4791351;30;20062;-69
2023/10/13 10:39:04;;;;;;;32.25;17.58;;;;;;;24.70;76.95;101407.16;4781103;29;20058;-68
2023/10/13 10:45:05;;;;;;;30.35;15.15;;;;;;;24.53;77.40;101405.47;4774425;30;20400;-68
2023/10/13 10:47:30;;;;;;;25.05;13.60;;;;;;;24.37;75.78;101405.41;4771395;30;20132;-68
2023/10/13 10:50:07;;;;;;;26.65;13.15;;;;;;;24.34;78.13;101390.16;4771914;30;20141;-68
2023/10/13 10:52:39;;;;;;;32.63;14.73;;;;;;;24.23;78.59;101397.41;4770533;30;20093;-68
2023/10/13 10:55:09;;;;;;;21.38;12.85;;;;;;;24.18;78.79;101392.09;4771689;30;20055;-68
2023/10/13 10:57:38;;;;;;;27.73;13.75;;;;;;;24.10;77.66;101391.84;4770547;30;20056;-68
2023/10/13 11:00:18;;;;;;;24.52;13.45;;;;;;;24.02;78.51;101381.63;4771802;30;20083;-68
2023/10/13 11:02:57;;;;;;;32.28;14.25;;;;;;;23.96;77.97;101374.66;4771695;30;20055;-68
2023/10/13 11:05:32;;;;;;;26.33;14.40;;;;;;;24.21;77.33;101374.59;4771614;30;20051;-68
2023/10/13 11:08:02;;;;;;;26.38;13.80;;;;;;;24.20;77.37;101372.97;4771602;30;20055;-68
2023/10/13 11:10:31;;;;;;;32.33;15.18;;;;;;;24.02;79.15;101371.25;4771880;30;20059;-68
2023/10/13 11:16:01;;;;;;;27.55;13.68;;;;;;;24.02;77.98;101362.88;4751510;30;20063;-68
2023/10/13 11:18:40;;;;;;;22.27;13.82;;;;;;;23.99;78.57;101357.97;4771896;30;20051;-68
2023/10/13 11:21:15;;;;;;;27.02;14.10;;;;;;;24.02;79.29;101356.47;4771890;30;20052;-68
2023/10/13 11:23:44;;;;;;;26.02;15.35;;;;;;;24.02;77.24;101353.66;4772004;30;20059;-68
2023/10/13 11:26:13;;;;;;;29.48;15.25;;;;;;;24.00;78.35;101347.63;4771928;30;20111;-68
2023/10/13 11:28:50;;;;;;;26.20;15.05;;;;;;;24.04;78.15;101348.53;4785988;30;20056;-68
2023/10/13 11:31:19;;;;;;;30.02;14.98;;;;;;;24.14;77.08;101345.25;4770869;30;20078;-68
2023/10/13 11:33:49;;;;;;;29.23;13.90;;;;;;;24.27;76.85;101340.44;4771521;30;20074;-68
2023/10/13 11:36:24;;;;;;;27.80;13.00;;;;;;;24.36;76.39;101337.50;4771560;30;20059;-68
2023/10/13 11:38:57;;;;;;;;;;;;;;;24.27;75.36;101328.44;4772130;30;20051;-68
2023/10/13 11:41:34;;;;;;;25.25;13.77;;;;;;;24.35;74.19;101329.44;4771691;30;19934;-68
2023/10/13 11:49:18;;;;;;;26.27;12.45;;;;;;;24.39;73.46;101324.78;4775234;29;20056;-68
2023/10/13 11:51:48;;;;;;;22.30;12.68;;;;;;;24.40;71.98;101332.78;4788314;30;20062;-68
2023/10/13 11:54:18;;;;;;;24.98;11.20;;;;;;;24.51;70.40;101327.50;4788527;30;20059;-68
2023/10/13 11:56:49;;;;;;;23.83;10.98;;;;;;;24.57;68.17;101325.25;4788340;30;20059;-68
2023/10/13 11:59:17;;;;;;;19.35;10.90;;;;;;;24.53;68.48;101318.72;4771780;30;20054;-68
2023/10/13 12:12:25;;;;;;;17.27;10.95;;;;;;;24.62;68.68;101302.59;4779081;30;20051;-68
2023/10/13 12:14:55;;;;;;;18.77;10.80;;;;;;;24.65;67.75;101292.69;4787506;30;20708;-68
2023/10/13 12:17:34;;;;;;;24.67;11.30;;;;;;;24.73;67.18;101288.88;4788313;30;20401;-68
2023/10/13 12:20:05;;;;;;;24.35;11.00;;;;;;;24.72;68.79;101292.06;4781750;30;20070;-68
2023/10/13 12:22:42;;;;;;;16.90;9.27;;;;;;;24.49;67.81;101289.88;4785968;30;20074;-67
2023/10/13 12:28:06;;;;;;;22.17;11.40;;;;;;;24.35;68.51;101285.53;4787882;30;20047;-66
2023/10/13 12:30:51;;;;;;;17.45;9.93;;;;;;;24.35;69.34;101282.72;4785598;30;20058;-66
2023/10/13 12:33:24;;;;;;;16.33;10.25;;;;;;;24.35;67.88;101268.75;4787382;30;20047;-67
2023/10/13 12:57:25;;;;;;;18.08;9.48;;;;;;;25.03;63.72;101252.06;4769921;30;20063;-67
2023/10/13 12:59:54;;;;;;;18.15;10.63;;;;;;;25.13;63.07;101250.72;4769518;30;20051;-67
2023/10/13 13:02:26;;;;;;;18.40;9.05;;;;;;;25.21;61.50;101241.28;4769501;30;20072;-67
2023/10/13 13:05:06;;;;;;;17.90;9.60;;;;;;;25.34;58.71;101238.34;4753634;30;20052;-67
2023/10/13 13:07:46;;;;;;;16.10;8.85;;;;;;;25.34;59.80;101244.78;4770119;30;20082;-67
2023/10/13 13:10:16;;;;;;;16.70;7.82;;;;;;;25.41;60.69;101243.31;4769374;30;20055;-67
2023/10/13 13:12:44;;;;;;;16.15;8.25;;;;;;;25.23;61.25;101238.13;4770970;29;20062;-67
2023/10/13 13:15:12;;;;;;;12.73;8.05;;;;;;;25.19;60.20;101240.84;4788095;29;20055;-67
2023/10/13 13:17:41;;;;;;;18.42;8.02;;;;;;;25.11;60.88;101232.66;4787073;30;20693;-67
2023/10/13 13:20:26;;;;;;;14.40;8.60;;;;;;;25.15;61.36;101237.13;4787069;30;20067;-67
2023/10/13 13:22:55;;;;;;;16.73;8.15;;;;;;;25.12;61.87;101229.47;4787131;30;20059;-67
2023/10/13 13:25:30;;;;;;;20.13;8.93;;;;;;;25.22;61.09;101231.69;4787082;30;20063;-68
2023/10/13 13:28:04;;;;;;;14.55;9.30;;;;;;;25.27;61.63;101224.19;4786849;30;20090;-67
2023/10/13 13:30:34;;;;;;;18.42;10.13;;;;;;;25.30;60.18;101223.44;4787347;30;20062;-67
2023/10/13 13:33:10;;;;;;;17.25;9.52;;;;;;;25.32;61.04;101213.50;4787215;30;20055;-67
2023/10/13 13:35:42;;;;;;;18.08;9.00;;;;;;;25.31;60.79;101225.09;4786939;30;20070;-67
2023/10/13 13:38:22;;;;;;;19.50;8.88;;;;;;;25.14;60.71;101212.28;4787607;30;20074;-67
2023/10/13 13:40:53;;;;;;;16.58;8.98;;;;;;;25.07;61.79;101216.56;4787267;30;20063;-67
2023/10/13 13:43:38;;;;;;;16.83;8.95;;;;;;;25.03;61.20;101207.25;4787322;30;20062;-67
2023/10/13 13:46:10;;;;;;;16.85;9.77;;;;;;;25.08;60.48;101208.97;4787410;30;20499;-67
2023/10/13 13:48:41;;;;;;;22.88;9.35;;;;;;;25.14;61.50;101210.31;4787319;30;20070;-67
2023/10/13 13:51:14;;;;;;;19.02;9.80;;;;;;;25.07;60.86;101210.16;4788266;29;20055;-68
2023/10/13 13:53:50;;;;;;;12.90;8.63;;;;;;;25.12;61.60;101204.25;4787920;29;20427;-67
2023/10/13 13:56:18;;;;;;;16.90;9.35;;;;;;;25.18;60.81;101205.59;4790066;30;20059;-67
2023/10/13 13:58:49;;;;;;;17.58;9.35;;;;;;;25.16;61.46;101209.97;4790562;29;20063;-67
2023/10/13 14:01:19;;;;;;;22.02;10.25;;;;;;;25.10;61.22;101203.81;4790253;30;20556;-67
2023/10/13 14:03:52;;;;;;;18.13;10.63;;;;;;;25.16;63.03;101199.56;4790121;30;20456;-67
2023/10/13 14:06:26;;;;;;;14.30;9.45;;;;;;;25.08;61.81;101203.38;4790128;30;20070;-67
2023/10/13 14:08:56;;;;;;;18.30;10.05;;;;;;;25.17;60.54;101195.56;4790508;29;20062;-67
2023/10/13 14:16:53;;;;;;;16.90;8.27;;;;;;;25.28;59.24;101186.59;4790313;30;20410;-66
2023/10/13 14:19:28;;;;;;;14.40;9.13;;;;;;;25.22;60.09;101181.28;4789916;30;20070;-67
2023/10/13 14:21:57;;;;;;;14.85;8.70;;;;;;;25.15;61.13;101186.75;4790357;30;20078;-67
2023/10/13 14:24:33;;;;;;;20.42;9.13;;;;;;;24.99;61.49;101180.38;4790178;30;20055;-67
2023/10/13 14:27:09;;;;;;;14.65;8.52;;;;;;;24.95;61.16;101178.31;4790299;30;20063;-67
2023/10/13 14:29:42;;;;;;;19.65;9.25;;;;;;;24.83;61.00;101181.22;4790491;30;20487;-67
2023/10/13 14:32:17;;;;;;;17.70;8.77;;;;;;;24.73;60.88;101178.94;4790370;30;20066;-67
2023/10/13 14:34:48;;;;;;;13.10;8.55;;;;;;;24.64;61.98;101173.53;4789827;30;20051;-67
2023/10/13 14:37:26;;;;;;;13.38;8.25;;;;;;;24.62;60.59;101178.66;4789742;30;20059;-67
2023/10/13 14:39:59;;;;;;;16.48;8.80;;;;;;;24.58;62.02;101175.00;4790435;30;20066;-66
2023/10/13 14:42:35;;;;;;;18.33;8.00;;;;;;;24.73;60.96;101176.16;4790294;30;20055;-67
2023/10/13 14:45:12;;;;;;;15.98;8.75;;;;;;;24.63;61.66;101169.91;4789989;30;20060;-67
2023/10/13 14:47:41;;;;;;;13.13;8.15;;;;;;;24.60;62.25;101167.88;4790190;30;20066;-67
2023/10/13 14:50:19;;;;;;;12.75;7.95;;;;;;;24.57;63.02;101174.16;4789604;30;20082;-67
2023/10/13 14:52:51;;;;;;;18.42;9.63;;;;;;;24.59;63.17;101166.25;4789631;30;20055;-67
2023/10/13 14:55:19;;;;;;;14.55;8.75;;;;;;;24.56;62.83;101158.56;4790619;30;20047;-67
2023/10/13 14:57:49;;;;;;;19.73;9.88;;;;;;;24.61;63.01;101163.88;4790083;30;20078;-67
2023/10/13 15:00:28;;;;;;;18.40;8.35;;;;;;;24.64;62.47;101165.94;4790456;30;20107;-67
2023/10/13 15:03:01;;;;;;;12.30;7.93;;;;;;;24.56;62.41;101147.38;4790056;30;20055;-67
2023/10/13 15:05:29;;;;;;;17.55;9.63;;;;;;;24.45;63.69;101154.69;4789562;29;20055;-67
2023/10/13 15:07:58;;;;;;;16.20;9.27;;;;;;;24.38;62.96;101150.53;4789415;30;20443;-67
2023/10/13 15:10:26;;;;;;;13.20;8.75;;;;;;;24.38;62.93;101147.75;4788938;30;20377;-67